sensor_id;sensor_type;location;lat;lon;timestamp;P1;durP1;ratioP1;P2;durP2;ratioP2
60068;SDS011;45945;53.350;55.922;2023-04-09T00:00:37;10.18;;;4.47;;
60068;SDS011;45945;53.350;55.922;2023-04-09T00:01:38;9.10;;;3.80;;
60068;SDS011;45945;53.350;55.922;2023-04-09T00:02:39;11.55;;;3.92;;
60068;SDS011;45945;53.350;55.922;2023-04-09T00:03:40;10.63;;;3.63;;
60068;SDS011;45945;53.350;55.922;2023-04-09T00:04:41;12.90;;;4.72;;
60068;SDS011;45945;53.350;55.922;2023-04-09T00:05:42;11.75;;;4.68;;
60068;SDS011;45945;53.350;55.922;2023-04-09T00:06:43;10.35;;;3.95;;
60068;SDS011;45945;53.350;55.922;2023-04-09T00:07:43;9.43;;;4.43;;
60068;SDS011;45945;53.350;55.922;2023-04-09T00:08:44;11.10;;;4.25;;
60068;SDS011;45945;53.350;55.922;2023-04-09T00:09:45;11.45;;;4.88;;
60068;SDS011;45945;53.350;55.922;2023-04-09T00:10:46;10.95;;;4.10;;
60068;SDS011;45945;53.350;55.922;2023-04-09T00:11:47;9.50;;;3.70;;
60068;SDS011;45945;53.350;55.922;2023-04-09T00:12:47;10.23;;;4.03;;
60068;SDS011;45945;53.350;55.922;2023-04-09T00:13:48;9.25;;;3.90;;
60068;SDS011;45945;53.350;55.922;2023-04-09T00:14:49;9.10;;;3.67;;
60068;SDS011;45945;53.350;55.922;2023-04-09T00:15:50;10.10;;;4.13;;
60068;SDS011;45945;53.350;55.922;2023-04-09T00:16:51;8.90;;;3.88;;
60068;SDS011;45945;53.350;55.922;2023-04-09T00:17:52;10.23;;;4.25;;
60068;SDS011;45945;53.350;55.922;2023-04-09T00:18:52;11.95;;;4.30;;
60068;SDS011;45945;53.350;55.922;2023-04-09T00:19:53;14.70;;;4.15;;
60068;SDS011;45945;53.350;55.922;2023-04-09T00:20:54;11.57;;;4.13;;
60068;SDS011;45945;53.350;55.922;2023-04-09T00:21:55;9.75;;;4.03;;
60068;SDS011;45945;53.350;55.922;2023-04-09T00:22:56;10.75;;;4.25;;
60068;SDS011;45945;53.350;55.922;2023-04-09T00:23:57;10.45;;;4.03;;
60068;SDS011;45945;53.350;55.922;2023-04-09T00:24:58;10.50;;;4.40;;
60068;SDS011;45945;53.350;55.922;2023-04-09T00:26:00;12.90;;;3.55;;
60068;SDS011;45945;53.350;55.922;2023-04-09T00:27:00;9.70;;;3.88;;
60068;SDS011;45945;53.350;55.922;2023-04-09T00:28:02;10.23;;;3.50;;
60068;SDS011;45945;53.350;55.922;2023-04-09T00:29:03;12.27;;;4.35;;
60068;SDS011;45945;53.350;55.922;2023-04-09T00:30:04;8.55;;;3.47;;
60068;SDS011;45945;53.350;55.922;2023-04-09T00:31:05;9.05;;;3.33;;
60068;SDS011;45945;53.350;55.922;2023-04-09T00:32:05;10.10;;;3.22;;
60068;SDS011;45945;53.350;55.922;2023-04-09T00:33:06;9.27;;;3.85;;
60068;SDS011;45945;53.350;55.922;2023-04-09T00:34:07;9.15;;;4.18;;
60068;SDS011;45945;53.350;55.922;2023-04-09T00:35:08;12.07;;;4.63;;
60068;SDS011;45945;53.350;55.922;2023-04-09T00:36:09;7.78;;;3.10;;
60068;SDS011;45945;53.350;55.922;2023-04-09T00:37:10;7.65;;;3.58;;
60068;SDS011;45945;53.350;55.922;2023-04-09T00:38:11;9.85;;;3.75;;
60068;SDS011;45945;53.350;55.922;2023-04-09T00:39:11;7.97;;;3.33;;
60068;SDS011;45945;53.350;55.922;2023-04-09T00:40:12;12.32;;;3.97;;
60068;SDS011;45945;53.350;55.922;2023-04-09T00:41:13;7.47;;;3.10;;
60068;SDS011;45945;53.350;55.922;2023-04-09T00:42:14;7.38;;;2.95;;
60068;SDS011;45945;53.350;55.922;2023-04-09T00:43:16;7.55;;;2.75;;
60068;SDS011;45945;53.350;55.922;2023-04-09T00:44:17;7.78;;;3.20;;
60068;SDS011;45945;53.350;55.922;2023-04-09T00:45:18;8.00;;;3.40;;
60068;SDS011;45945;53.350;55.922;2023-04-09T00:46:19;7.72;;;3.35;;
60068;SDS011;45945;53.350;55.922;2023-04-09T00:47:20;9.13;;;3.55;;
60068;SDS011;45945;53.350;55.922;2023-04-09T00:48:21;6.82;;;3.03;;
60068;SDS011;45945;53.350;55.922;2023-04-09T00:49:22;9.25;;;3.40;;
60068;SDS011;45945;53.350;55.922;2023-04-09T00:50:26;6.45;;;2.88;;
60068;SDS011;45945;53.350;55.922;2023-04-09T00:51:26;8.23;;;3.30;;
60068;SDS011;45945;53.350;55.922;2023-04-09T00:52:28;8.77;;;2.85;;
60068;SDS011;45945;53.350;55.922;2023-04-09T00:53:31;8.13;;;3.20;;
60068;SDS011;45945;53.350;55.922;2023-04-09T00:54:32;8.95;;;3.40;;
60068;SDS011;45945;53.350;55.922;2023-04-09T00:55:33;7.93;;;2.90;;
60068;SDS011;45945;53.350;55.922;2023-04-09T00:56:35;8.30;;;3.10;;
60068;SDS011;45945;53.350;55.922;2023-04-09T00:57:36;8.45;;;3.80;;
60068;SDS011;45945;53.350;55.922;2023-04-09T00:58:38;9.23;;;4.00;;
60068;SDS011;45945;53.350;55.922;2023-04-09T00:59:40;8.02;;;3.65;;
60068;SDS011;45945;53.350;55.922;2023-04-09T01:00:41;11.73;;;3.75;;
60068;SDS011;45945;53.350;55.922;2023-04-09T01:01:42;8.95;;;3.25;;
60068;SDS011;45945;53.350;55.922;2023-04-09T01:02:44;9.50;;;3.65;;
60068;SDS011;45945;53.350;55.922;2023-04-09T01:03:45;10.52;;;3.88;;
60068;SDS011;45945;53.350;55.922;2023-04-09T01:04:47;9.75;;;3.88;;
60068;SDS011;45945;53.350;55.922;2023-04-09T01:05:51;7.30;;;3.10;;
60068;SDS011;45945;53.350;55.922;2023-04-09T01:08:03;9.40;;;3.15;;
60068;SDS011;45945;53.350;55.922;2023-04-09T01:09:49;9.70;;;3.47;;
60068;SDS011;45945;53.350;55.922;2023-04-09T01:11:39;7.45;;;3.38;;
60068;SDS011;45945;53.350;55.922;2023-04-09T01:12:47;9.77;;;3.38;;
60068;SDS011;45945;53.350;55.922;2023-04-09T01:15:09;10.00;;;3.47;;
60068;SDS011;45945;53.350;55.922;2023-04-09T01:16:10;8.90;;;3.00;;
60068;SDS011;45945;53.350;55.922;2023-04-09T01:17:16;8.27;;;3.50;;
60068;SDS011;45945;53.350;55.922;2023-04-09T01:18:23;9.25;;;3.08;;
60068;SDS011;45945;53.350;55.922;2023-04-09T01:20:41;8.57;;;4.00;;
60068;SDS011;45945;53.350;55.922;2023-04-09T01:21:43;9.68;;;3.65;;
60068;SDS011;45945;53.350;55.922;2023-04-09T01:25:08;10.25;;;3.50;;
60068;SDS011;45945;53.350;55.922;2023-04-09T01:27:42;8.00;;;3.40;;
60068;SDS011;45945;53.350;55.922;2023-04-09T01:28:44;8.95;;;3.05;;
60068;SDS011;45945;53.350;55.922;2023-04-09T01:29:47;13.32;;;2.88;;
60068;SDS011;45945;53.350;55.922;2023-04-09T01:30:52;11.50;;;3.55;;
60068;SDS011;45945;53.350;55.922;2023-04-09T01:31:53;7.32;;;3.05;;
60068;SDS011;45945;53.350;55.922;2023-04-09T01:32:55;9.80;;;3.50;;
60068;SDS011;45945;53.350;55.922;2023-04-09T01:34:00;10.90;;;4.30;;
60068;SDS011;45945;53.350;55.922;2023-04-09T01:35:01;10.52;;;3.50;;
60068;SDS011;45945;53.350;55.922;2023-04-09T01:36:04;7.35;;;2.78;;
60068;SDS011;45945;53.350;55.922;2023-04-09T01:37:06;9.90;;;3.10;;
60068;SDS011;45945;53.350;55.922;2023-04-09T01:38:08;6.70;;;3.20;;
60068;SDS011;45945;53.350;55.922;2023-04-09T01:39:09;5.82;;;2.88;;
60068;SDS011;45945;53.350;55.922;2023-04-09T01:40:10;7.60;;;3.17;;
60068;SDS011;45945;53.350;55.922;2023-04-09T01:41:13;8.85;;;3.35;;
60068;SDS011;45945;53.350;55.922;2023-04-09T01:42:14;8.63;;;3.40;;
60068;SDS011;45945;53.350;55.922;2023-04-09T01:43:15;8.20;;;3.15;;
60068;SDS011;45945;53.350;55.922;2023-04-09T01:44:17;9.07;;;3.60;;
60068;SDS011;45945;53.350;55.922;2023-04-09T01:45:18;8.70;;;2.83;;
60068;SDS011;45945;53.350;55.922;2023-04-09T01:46:20;8.82;;;3.25;;
60068;SDS011;45945;53.350;55.922;2023-04-09T01:47:21;8.77;;;3.08;;
60068;SDS011;45945;53.350;55.922;2023-04-09T01:48:23;6.97;;;2.67;;
60068;SDS011;45945;53.350;55.922;2023-04-09T01:49:23;8.45;;;3.67;;
60068;SDS011;45945;53.350;55.922;2023-04-09T01:50:25;6.40;;;2.35;;
60068;SDS011;45945;53.350;55.922;2023-04-09T01:51:26;8.70;;;2.85;;
60068;SDS011;45945;53.350;55.922;2023-04-09T01:52:27;7.78;;;2.60;;
60068;SDS011;45945;53.350;55.922;2023-04-09T01:53:28;5.60;;;2.33;;
60068;SDS011;45945;53.350;55.922;2023-04-09T01:54:30;6.03;;;2.58;;
60068;SDS011;45945;53.350;55.922;2023-04-09T01:55:32;9.45;;;3.20;;
60068;SDS011;45945;53.350;55.922;2023-04-09T01:56:42;9.15;;;3.25;;
60068;SDS011;45945;53.350;55.922;2023-04-09T01:57:43;6.22;;;2.25;;
60068;SDS011;45945;53.350;55.922;2023-04-09T01:58:44;9.45;;;3.00;;
60068;SDS011;45945;53.350;55.922;2023-04-09T01:59:45;10.50;;;3.22;;
60068;SDS011;45945;53.350;55.922;2023-04-09T02:00:46;9.35;;;2.72;;
60068;SDS011;45945;53.350;55.922;2023-04-09T02:01:57;9.77;;;3.85;;
60068;SDS011;45945;53.350;55.922;2023-04-09T02:04:03;8.48;;;2.90;;
60068;SDS011;45945;53.350;55.922;2023-04-09T02:05:05;7.95;;;2.95;;
60068;SDS011;45945;53.350;55.922;2023-04-09T02:07:22;9.50;;;3.03;;
60068;SDS011;45945;53.350;55.922;2023-04-09T02:09:26;8.38;;;2.70;;
60068;SDS011;45945;53.350;55.922;2023-04-09T02:10:29;7.97;;;2.67;;
60068;SDS011;45945;53.350;55.922;2023-04-09T02:11:31;8.32;;;2.88;;
60068;SDS011;45945;53.350;55.922;2023-04-09T02:12:35;9.73;;;3.00;;
60068;SDS011;45945;53.350;55.922;2023-04-09T02:13:36;7.20;;;3.03;;
60068;SDS011;45945;53.350;55.922;2023-04-09T02:14:37;4.53;;;2.00;;
60068;SDS011;45945;53.350;55.922;2023-04-09T02:15:39;8.77;;;2.70;;
60068;SDS011;45945;53.350;55.922;2023-04-09T02:16:41;8.13;;;2.30;;
60068;SDS011;45945;53.350;55.922;2023-04-09T02:17:42;8.23;;;2.90;;
60068;SDS011;45945;53.350;55.922;2023-04-09T02:18:44;7.78;;;3.08;;
60068;SDS011;45945;53.350;55.922;2023-04-09T02:19:46;8.40;;;2.75;;
60068;SDS011;45945;53.350;55.922;2023-04-09T02:20:47;8.25;;;2.72;;
60068;SDS011;45945;53.350;55.922;2023-04-09T02:21:48;8.40;;;2.70;;
60068;SDS011;45945;53.350;55.922;2023-04-09T02:22:49;5.35;;;1.80;;
60068;SDS011;45945;53.350;55.922;2023-04-09T02:23:50;8.77;;;2.30;;
60068;SDS011;45945;53.350;55.922;2023-04-09T02:24:51;6.85;;;2.30;;
60068;SDS011;45945;53.350;55.922;2023-04-09T02:25:52;7.38;;;2.97;;
60068;SDS011;45945;53.350;55.922;2023-04-09T02:26:53;7.00;;;2.50;;
60068;SDS011;45945;53.350;55.922;2023-04-09T02:27:54;6.50;;;2.58;;
60068;SDS011;45945;53.350;55.922;2023-04-09T02:28:55;9.18;;;2.83;;
60068;SDS011;45945;53.350;55.922;2023-04-09T02:29:55;8.70;;;2.63;;
60068;SDS011;45945;53.350;55.922;2023-04-09T02:30:57;6.22;;;2.50;;
60068;SDS011;45945;53.350;55.922;2023-04-09T02:31:58;7.32;;;2.70;;
60068;SDS011;45945;53.350;55.922;2023-04-09T02:32:58;9.02;;;2.15;;
60068;SDS011;45945;53.350;55.922;2023-04-09T02:33:59;6.35;;;2.40;;
60068;SDS011;45945;53.350;55.922;2023-04-09T02:35:00;8.98;;;2.85;;
60068;SDS011;45945;53.350;55.922;2023-04-09T02:36:01;7.32;;;2.67;;
60068;SDS011;45945;53.350;55.922;2023-04-09T02:37:02;7.05;;;2.33;;
60068;SDS011;45945;53.350;55.922;2023-04-09T02:38:03;3.25;;;1.27;;
60068;SDS011;45945;53.350;55.922;2023-04-09T02:39:03;5.32;;;1.98;;
60068;SDS011;45945;53.350;55.922;2023-04-09T02:40:05;7.97;;;2.33;;
60068;SDS011;45945;53.350;55.922;2023-04-09T02:41:05;10.38;;;2.72;;
60068;SDS011;45945;53.350;55.922;2023-04-09T02:42:06;7.43;;;2.50;;
60068;SDS011;45945;53.350;55.922;2023-04-09T02:43:08;5.85;;;2.13;;
60068;SDS011;45945;53.350;55.922;2023-04-09T02:44:09;5.88;;;2.38;;
60068;SDS011;45945;53.350;55.922;2023-04-09T02:45:10;10.52;;;2.97;;
60068;SDS011;45945;53.350;55.922;2023-04-09T02:46:11;5.65;;;2.20;;
60068;SDS011;45945;53.350;55.922;2023-04-09T02:47:12;6.78;;;2.70;;
60068;SDS011;45945;53.350;55.922;2023-04-09T02:48:13;9.13;;;2.40;;
60068;SDS011;45945;53.350;55.922;2023-04-09T02:49:14;8.10;;;2.45;;
60068;SDS011;45945;53.350;55.922;2023-04-09T02:50:15;7.90;;;2.63;;
60068;SDS011;45945;53.350;55.922;2023-04-09T02:51:22;7.50;;;2.30;;
60068;SDS011;45945;53.350;55.922;2023-04-09T02:52:22;6.68;;;2.30;;
60068;SDS011;45945;53.350;55.922;2023-04-09T02:53:24;6.00;;;2.28;;
60068;SDS011;45945;53.350;55.922;2023-04-09T02:54:25;6.72;;;2.22;;
60068;SDS011;45945;53.350;55.922;2023-04-09T02:55:26;6.65;;;2.45;;
60068;SDS011;45945;53.350;55.922;2023-04-09T02:56:27;5.70;;;1.90;;
60068;SDS011;45945;53.350;55.922;2023-04-09T02:57:28;4.97;;;2.10;;
60068;SDS011;45945;53.350;55.922;2023-04-09T02:58:29;10.88;;;2.78;;
60068;SDS011;45945;53.350;55.922;2023-04-09T02:59:30;6.97;;;2.20;;
60068;SDS011;45945;53.350;55.922;2023-04-09T03:00:32;7.65;;;2.08;;
60068;SDS011;45945;53.350;55.922;2023-04-09T03:01:33;4.38;;;1.77;;
60068;SDS011;45945;53.350;55.922;2023-04-09T03:02:34;9.25;;;2.58;;
60068;SDS011;45945;53.350;55.922;2023-04-09T03:03:35;4.57;;;2.10;;
60068;SDS011;45945;53.350;55.922;2023-04-09T03:04:38;4.53;;;1.65;;
60068;SDS011;45945;53.350;55.922;2023-04-09T03:05:39;4.43;;;1.83;;
60068;SDS011;45945;53.350;55.922;2023-04-09T03:06:40;7.45;;;2.60;;
60068;SDS011;45945;53.350;55.922;2023-04-09T03:07:43;5.40;;;2.10;;
60068;SDS011;45945;53.350;55.922;2023-04-09T03:08:44;6.47;;;2.30;;
60068;SDS011;45945;53.350;55.922;2023-04-09T03:09:45;6.95;;;2.33;;
60068;SDS011;45945;53.350;55.922;2023-04-09T03:10:46;5.68;;;2.20;;
60068;SDS011;45945;53.350;55.922;2023-04-09T03:11:47;6.55;;;2.25;;
60068;SDS011;45945;53.350;55.922;2023-04-09T03:12:47;7.55;;;2.58;;
60068;SDS011;45945;53.350;55.922;2023-04-09T03:13:48;6.05;;;1.98;;
60068;SDS011;45945;53.350;55.922;2023-04-09T03:14:49;8.70;;;2.45;;
60068;SDS011;45945;53.350;55.922;2023-04-09T03:15:51;6.63;;;2.03;;
60068;SDS011;45945;53.350;55.922;2023-04-09T03:16:52;7.03;;;2.33;;
60068;SDS011;45945;53.350;55.922;2023-04-09T03:17:53;5.60;;;2.00;;
60068;SDS011;45945;53.350;55.922;2023-04-09T03:18:54;9.70;;;2.78;;
60068;SDS011;45945;53.350;55.922;2023-04-09T03:19:55;6.55;;;2.70;;
60068;SDS011;45945;53.350;55.922;2023-04-09T03:20:56;7.28;;;2.60;;
60068;SDS011;45945;53.350;55.922;2023-04-09T03:21:58;6.78;;;2.17;;
60068;SDS011;45945;53.350;55.922;2023-04-09T03:23:01;7.72;;;2.50;;
60068;SDS011;45945;53.350;55.922;2023-04-09T03:24:06;8.07;;;2.65;;
60068;SDS011;45945;53.350;55.922;2023-04-09T03:25:08;8.02;;;2.92;;
60068;SDS011;45945;53.350;55.922;2023-04-09T03:26:10;6.95;;;2.17;;
60068;SDS011;45945;53.350;55.922;2023-04-09T03:27:18;6.63;;;2.47;;
60068;SDS011;45945;53.350;55.922;2023-04-09T03:28:21;6.80;;;2.30;;
60068;SDS011;45945;53.350;55.922;2023-04-09T03:29:25;5.68;;;2.20;;
60068;SDS011;45945;53.350;55.922;2023-04-09T03:30:26;6.13;;;2.28;;
60068;SDS011;45945;53.350;55.922;2023-04-09T03:31:28;7.57;;;2.50;;
60068;SDS011;45945;53.350;55.922;2023-04-09T03:32:29;7.88;;;2.47;;
60068;SDS011;45945;53.350;55.922;2023-04-09T03:33:29;6.15;;;2.75;;
60068;SDS011;45945;53.350;55.922;2023-04-09T03:34:32;8.60;;;2.97;;
60068;SDS011;45945;53.350;55.922;2023-04-09T03:35:33;5.82;;;2.28;;
60068;SDS011;45945;53.350;55.922;2023-04-09T03:36:35;6.80;;;2.30;;
60068;SDS011;45945;53.350;55.922;2023-04-09T03:37:37;7.10;;;2.90;;
60068;SDS011;45945;53.350;55.922;2023-04-09T03:38:40;8.13;;;2.70;;
60068;SDS011;45945;53.350;55.922;2023-04-09T03:39:47;6.45;;;2.28;;
60068;SDS011;45945;53.350;55.922;2023-04-09T03:40:48;7.43;;;2.60;;
60068;SDS011;45945;53.350;55.922;2023-04-09T03:41:49;7.20;;;2.50;;
60068;SDS011;45945;53.350;55.922;2023-04-09T03:42:51;8.75;;;3.20;;
60068;SDS011;45945;53.350;55.922;2023-04-09T03:43:53;8.15;;;2.90;;
60068;SDS011;45945;53.350;55.922;2023-04-09T03:45:03;6.65;;;2.60;;
60068;SDS011;45945;53.350;55.922;2023-04-09T03:46:13;8.98;;;2.60;;
60068;SDS011;45945;53.350;55.922;2023-04-09T03:47:16;7.47;;;2.85;;
60068;SDS011;45945;53.350;55.922;2023-04-09T03:48:18;6.57;;;2.72;;
60068;SDS011;45945;53.350;55.922;2023-04-09T03:49:19;7.28;;;2.70;;
60068;SDS011;45945;53.350;55.922;2023-04-09T03:50:20;7.55;;;2.90;;
60068;SDS011;45945;53.350;55.922;2023-04-09T03:51:26;8.45;;;2.35;;
60068;SDS011;45945;53.350;55.922;2023-04-09T03:52:30;9.65;;;2.80;;
60068;SDS011;45945;53.350;55.922;2023-04-09T03:54:02;8.13;;;2.60;;
60068;SDS011;45945;53.350;55.922;2023-04-09T03:55:04;7.85;;;2.90;;
60068;SDS011;45945;53.350;55.922;2023-04-09T03:56:05;7.93;;;3.08;;
60068;SDS011;45945;53.350;55.922;2023-04-09T03:57:07;8.25;;;3.00;;
60068;SDS011;45945;53.350;55.922;2023-04-09T03:58:14;7.50;;;3.03;;
60068;SDS011;45945;53.350;55.922;2023-04-09T03:59:15;7.60;;;2.72;;
60068;SDS011;45945;53.350;55.922;2023-04-09T04:00:19;7.28;;;2.70;;
60068;SDS011;45945;53.350;55.922;2023-04-09T04:01:52;7.57;;;2.70;;
60068;SDS011;45945;53.350;55.922;2023-04-09T04:02:53;10.07;;;3.20;;
60068;SDS011;45945;53.350;55.922;2023-04-09T04:04:13;8.30;;;2.95;;
60068;SDS011;45945;53.350;55.922;2023-04-09T04:05:27;9.38;;;3.33;;
60068;SDS011;45945;53.350;55.922;2023-04-09T04:06:34;8.02;;;2.80;;
60068;SDS011;45945;53.350;55.922;2023-04-09T04:07:53;9.63;;;3.50;;
60068;SDS011;45945;53.350;55.922;2023-04-09T04:09:00;8.73;;;3.20;;
60068;SDS011;45945;53.350;55.922;2023-04-09T04:10:10;8.50;;;3.03;;
60068;SDS011;45945;53.350;55.922;2023-04-09T04:11:15;8.90;;;3.30;;
60068;SDS011;45945;53.350;55.922;2023-04-09T04:12:16;7.32;;;3.45;;
60068;SDS011;45945;53.350;55.922;2023-04-09T04:13:44;9.82;;;3.20;;
60068;SDS011;45945;53.350;55.922;2023-04-09T04:14:45;9.85;;;3.97;;
60068;SDS011;45945;53.350;55.922;2023-04-09T04:15:56;9.88;;;4.10;;
60068;SDS011;45945;53.350;55.922;2023-04-09T04:16:58;10.88;;;3.85;;
60068;SDS011;45945;53.350;55.922;2023-04-09T04:18:02;12.90;;;4.22;;
60068;SDS011;45945;53.350;55.922;2023-04-09T04:19:14;9.88;;;3.63;;
60068;SDS011;45945;53.350;55.922;2023-04-09T04:20:19;9.30;;;3.67;;
60068;SDS011;45945;53.350;55.922;2023-04-09T04:21:30;8.65;;;3.20;;
60068;SDS011;45945;53.350;55.922;2023-04-09T04:22:35;11.02;;;4.13;;
60068;SDS011;45945;53.350;55.922;2023-04-09T04:23:37;8.80;;;3.70;;
60068;SDS011;45945;53.350;55.922;2023-04-09T04:24:50;8.73;;;3.65;;
60068;SDS011;45945;53.350;55.922;2023-04-09T04:25:54;7.82;;;3.33;;
60068;SDS011;45945;53.350;55.922;2023-04-09T04:27:03;10.48;;;3.83;;
60068;SDS011;45945;53.350;55.922;2023-04-09T04:28:07;9.65;;;3.50;;
60068;SDS011;45945;53.350;55.922;2023-04-09T04:29:14;12.85;;;4.38;;
60068;SDS011;45945;53.350;55.922;2023-04-09T04:30:34;7.82;;;2.90;;
60068;SDS011;45945;53.350;55.922;2023-04-09T04:31:39;10.05;;;3.78;;
60068;SDS011;45945;53.350;55.922;2023-04-09T04:32:40;11.73;;;3.40;;
60068;SDS011;45945;53.350;55.922;2023-04-09T04:33:44;10.63;;;3.17;;
60068;SDS011;45945;53.350;55.922;2023-04-09T04:34:49;10.48;;;3.75;;
60068;SDS011;45945;53.350;55.922;2023-04-09T04:36:03;9.07;;;3.13;;
60068;SDS011;45945;53.350;55.922;2023-04-09T04:37:13;9.13;;;3.60;;
60068;SDS011;45945;53.350;55.922;2023-04-09T04:38:15;11.68;;;3.75;;
60068;SDS011;45945;53.350;55.922;2023-04-09T04:39:16;9.55;;;3.42;;
60068;SDS011;45945;53.350;55.922;2023-04-09T04:40:28;11.15;;;3.90;;
60068;SDS011;45945;53.350;55.922;2023-04-09T04:41:33;10.25;;;3.28;;
60068;SDS011;45945;53.350;55.922;2023-04-09T04:42:44;10.52;;;4.18;;
60068;SDS011;45945;53.350;55.922;2023-04-09T04:43:48;10.63;;;4.05;;
60068;SDS011;45945;53.350;55.922;2023-04-09T04:44:54;13.07;;;3.80;;
60068;SDS011;45945;53.350;55.922;2023-04-09T04:46:21;9.20;;;3.53;;
60068;SDS011;45945;53.350;55.922;2023-04-09T04:47:22;13.55;;;4.45;;
60068;SDS011;45945;53.350;55.922;2023-04-09T04:48:23;11.15;;;3.33;;
60068;SDS011;45945;53.350;55.922;2023-04-09T04:49:24;10.25;;;4.10;;
60068;SDS011;45945;53.350;55.922;2023-04-09T04:50:25;9.55;;;3.90;;
60068;SDS011;45945;53.350;55.922;2023-04-09T04:51:33;9.43;;;3.40;;
60068;SDS011;45945;53.350;55.922;2023-04-09T04:53:44;10.02;;;3.72;;
60068;SDS011;45945;53.350;55.922;2023-04-09T04:54:47;10.10;;;3.50;;
60068;SDS011;45945;53.350;55.922;2023-04-09T04:55:53;9.32;;;3.50;;
60068;SDS011;45945;53.350;55.922;2023-04-09T04:56:58;8.63;;;3.75;;
60068;SDS011;45945;53.350;55.922;2023-04-09T04:58:08;9.85;;;3.47;;
60068;SDS011;45945;53.350;55.922;2023-04-09T04:59:17;8.68;;;3.53;;
60068;SDS011;45945;53.350;55.922;2023-04-09T05:00:31;9.10;;;3.75;;
60068;SDS011;45945;53.350;55.922;2023-04-09T05:01:35;9.48;;;3.50;;
60068;SDS011;45945;53.350;55.922;2023-04-09T05:02:40;9.43;;;3.97;;
60068;SDS011;45945;53.350;55.922;2023-04-09T05:03:55;8.40;;;3.65;;
60068;SDS011;45945;53.350;55.922;2023-04-09T05:05:00;11.05;;;3.53;;
60068;SDS011;45945;53.350;55.922;2023-04-09T05:06:08;8.60;;;3.15;;
60068;SDS011;45945;53.350;55.922;2023-04-09T05:07:15;8.52;;;3.28;;
60068;SDS011;45945;53.350;55.922;2023-04-09T05:08:23;9.07;;;3.10;;
60068;SDS011;45945;53.350;55.922;2023-04-09T05:09:26;8.85;;;3.40;;
60068;SDS011;45945;53.350;55.922;2023-04-09T05:10:34;7.95;;;3.15;;
60068;SDS011;45945;53.350;55.922;2023-04-09T05:11:36;8.90;;;2.63;;
60068;SDS011;45945;53.350;55.922;2023-04-09T05:12:39;7.28;;;3.22;;
60068;SDS011;45945;53.350;55.922;2023-04-09T05:13:42;9.70;;;3.08;;
60068;SDS011;45945;53.350;55.922;2023-04-09T05:14:44;9.38;;;2.80;;
60068;SDS011;45945;53.350;55.922;2023-04-09T05:15:45;9.23;;;3.83;;
60068;SDS011;45945;53.350;55.922;2023-04-09T05:16:46;9.77;;;3.45;;
60068;SDS011;45945;53.350;55.922;2023-04-09T05:17:47;8.35;;;3.55;;
60068;SDS011;45945;53.350;55.922;2023-04-09T05:18:50;9.68;;;3.50;;
60068;SDS011;45945;53.350;55.922;2023-04-09T05:19:51;6.60;;;2.90;;
60068;SDS011;45945;53.350;55.922;2023-04-09T05:21:00;8.60;;;3.55;;
60068;SDS011;45945;53.350;55.922;2023-04-09T05:22:03;7.22;;;3.15;;
60068;SDS011;45945;53.350;55.922;2023-04-09T05:23:04;8.80;;;3.17;;
60068;SDS011;45945;53.350;55.922;2023-04-09T05:24:11;7.65;;;2.55;;
60068;SDS011;45945;53.350;55.922;2023-04-09T05:25:13;6.75;;;2.28;;
60068;SDS011;45945;53.350;55.922;2023-04-09T05:26:16;7.95;;;3.20;;
60068;SDS011;45945;53.350;55.922;2023-04-09T05:27:25;8.98;;;3.10;;
60068;SDS011;45945;53.350;55.922;2023-04-09T05:28:31;7.10;;;3.35;;
60068;SDS011;45945;53.350;55.922;2023-04-09T05:29:45;8.40;;;3.22;;
60068;SDS011;45945;53.350;55.922;2023-04-09T05:30:46;8.50;;;2.88;;
60068;SDS011;45945;53.350;55.922;2023-04-09T05:31:47;7.60;;;3.00;;
60068;SDS011;45945;53.350;55.922;2023-04-09T05:32:58;8.35;;;3.15;;
60068;SDS011;45945;53.350;55.922;2023-04-09T05:34:01;7.40;;;2.90;;
60068;SDS011;45945;53.350;55.922;2023-04-09T05:35:10;7.68;;;2.67;;
60068;SDS011;45945;53.350;55.922;2023-04-09T05:36:15;7.80;;;2.83;;
60068;SDS011;45945;53.350;55.922;2023-04-09T05:37:16;8.82;;;3.13;;
60068;SDS011;45945;53.350;55.922;2023-04-09T05:38:23;7.18;;;2.90;;
60068;SDS011;45945;53.350;55.922;2023-04-09T05:39:31;9.90;;;3.10;;
60068;SDS011;45945;53.350;55.922;2023-04-09T05:40:32;7.43;;;3.00;;
60068;SDS011;45945;53.350;55.922;2023-04-09T05:41:35;7.70;;;2.90;;
60068;SDS011;45945;53.350;55.922;2023-04-09T05:42:56;9.27;;;3.53;;
60068;SDS011;45945;53.350;55.922;2023-04-09T05:44:07;7.95;;;3.10;;
60068;SDS011;45945;53.350;55.922;2023-04-09T05:45:11;8.98;;;3.20;;
60068;SDS011;45945;53.350;55.922;2023-04-09T05:46:19;7.40;;;2.85;;
60068;SDS011;45945;53.350;55.922;2023-04-09T05:47:20;9.00;;;3.20;;
60068;SDS011;45945;53.350;55.922;2023-04-09T05:48:41;8.35;;;3.08;;
60068;SDS011;45945;53.350;55.922;2023-04-09T05:49:42;12.65;;;3.80;;
60068;SDS011;45945;53.350;55.922;2023-04-09T05:50:50;6.72;;;2.85;;
60068;SDS011;45945;53.350;55.922;2023-04-09T05:51:52;8.13;;;2.97;;
60068;SDS011;45945;53.350;55.922;2023-04-09T05:53:00;7.05;;;2.58;;
60068;SDS011;45945;53.350;55.922;2023-04-09T05:54:09;6.90;;;2.78;;
60068;SDS011;45945;53.350;55.922;2023-04-09T05:55:11;8.23;;;2.95;;
60068;SDS011;45945;53.350;55.922;2023-04-09T05:56:18;7.60;;;2.65;;
60068;SDS011;45945;53.350;55.922;2023-04-09T05:57:25;8.80;;;2.80;;
60068;SDS011;45945;53.350;55.922;2023-04-09T05:58:33;6.72;;;2.78;;
60068;SDS011;45945;53.350;55.922;2023-04-09T05:59:34;7.30;;;2.80;;
60068;SDS011;45945;53.350;55.922;2023-04-09T06:00:34;6.53;;;2.90;;
60068;SDS011;45945;53.350;55.922;2023-04-09T06:01:36;6.45;;;2.72;;
60068;SDS011;45945;53.350;55.922;2023-04-09T06:02:37;6.40;;;2.97;;
60068;SDS011;45945;53.350;55.922;2023-04-09T06:03:38;7.80;;;2.72;;
60068;SDS011;45945;53.350;55.922;2023-04-09T06:04:39;6.78;;;2.88;;
60068;SDS011;45945;53.350;55.922;2023-04-09T06:05:40;6.13;;;2.95;;
60068;SDS011;45945;53.350;55.922;2023-04-09T06:06:41;7.20;;;2.80;;
60068;SDS011;45945;53.350;55.922;2023-04-09T06:07:41;7.90;;;2.88;;
60068;SDS011;45945;53.350;55.922;2023-04-09T06:08:45;8.15;;;2.63;;
60068;SDS011;45945;53.350;55.922;2023-04-09T06:09:46;7.28;;;2.85;;
60068;SDS011;45945;53.350;55.922;2023-04-09T06:10:47;6.53;;;2.38;;
60068;SDS011;45945;53.350;55.922;2023-04-09T06:11:48;8.05;;;3.15;;
60068;SDS011;45945;53.350;55.922;2023-04-09T06:12:49;7.18;;;2.53;;
60068;SDS011;45945;53.350;55.922;2023-04-09T06:13:50;8.57;;;2.60;;
60068;SDS011;45945;53.350;55.922;2023-04-09T06:14:51;8.15;;;2.53;;
60068;SDS011;45945;53.350;55.922;2023-04-09T06:15:52;7.15;;;2.60;;
60068;SDS011;45945;53.350;55.922;2023-04-09T06:16:53;6.50;;;2.30;;
60068;SDS011;45945;53.350;55.922;2023-04-09T06:17:54;5.55;;;2.05;;
60068;SDS011;45945;53.350;55.922;2023-04-09T06:18:55;6.25;;;2.10;;
60068;SDS011;45945;53.350;55.922;2023-04-09T06:19:56;6.25;;;2.30;;
60068;SDS011;45945;53.350;55.922;2023-04-09T06:21:03;5.72;;;2.30;;
60068;SDS011;45945;53.350;55.922;2023-04-09T06:22:04;5.65;;;2.15;;
60068;SDS011;45945;53.350;55.922;2023-04-09T06:23:05;6.30;;;2.25;;
60068;SDS011;45945;53.350;55.922;2023-04-09T06:24:06;7.13;;;2.85;;
60068;SDS011;45945;53.350;55.922;2023-04-09T06:25:07;6.82;;;2.40;;
60068;SDS011;45945;53.350;55.922;2023-04-09T06:26:08;6.55;;;2.60;;
60068;SDS011;45945;53.350;55.922;2023-04-09T06:27:09;5.05;;;1.92;;
60068;SDS011;45945;53.350;55.922;2023-04-09T06:28:10;5.72;;;2.40;;
60068;SDS011;45945;53.350;55.922;2023-04-09T06:29:11;9.52;;;3.10;;